createdAt,value
2019-02-06T00:01:15.819Z,79.50
2019-02-06T00:03:46.002Z,78.28
2019-02-06T00:06:16.289Z,79.05
2019-02-06T00:08:46.697Z,78.10
2019-02-06T00:11:17.309Z,68.95
2019-02-06T00:13:47.849Z,69.83
2019-02-06T00:16:18.157Z,71.85
2019-02-06T00:18:48.463Z,70.17
2019-02-06T00:21:20.673Z,83.80
2019-02-06T00:23:50.930Z,77.93
2019-02-06T00:26:21.029Z,76.93
2019-02-06T00:28:51.282Z,77.77
2019-02-06T00:31:21.475Z,81.32
2019-02-06T00:33:51.794Z,74.03
2019-02-06T00:36:22.068Z,80.70
2019-02-06T00:38:52.739Z,84.13
2019-02-06T00:41:22.954Z,80.95
2019-02-06T00:43:53.358Z,76.33
2019-02-06T00:46:23.613Z,84.67
2019-02-06T00:48:53.867Z,84.20
2019-02-06T00:51:24.093Z,85.92
2019-02-06T00:53:54.544Z,86.30
2019-02-06T00:56:24.891Z,84.63
2019-02-06T00:58:55.164Z,85.40
2019-02-06T01:01:25.682Z,89.20
2019-02-06T01:03:56.032Z,80.97
2019-02-06T01:06:26.673Z,88.47
2019-02-06T01:08:56.950Z,90.03
2019-02-06T01:11:27.207Z,86.47
2019-02-06T01:13:57.458Z,92.27
2019-02-06T01:16:27.788Z,84.87
2019-02-06T01:18:58.030Z,81.33
2019-02-06T01:21:28.643Z,88.33
2019-02-06T01:23:58.885Z,91.40
2019-02-06T01:26:29.132Z,91.83
2019-02-06T01:28:59.303Z,85.63
2019-02-06T01:31:31.045Z,89.87
2019-02-06T01:34:01.433Z,86.90
2019-02-06T01:36:31.772Z,85.97
2019-02-06T01:39:02.082Z,83.52
2019-02-06T01:41:32.297Z,86.63
2019-02-06T01:44:02.660Z,82.37
2019-02-06T01:46:33.007Z,84.50
2019-02-06T01:49:03.243Z,88.30
2019-02-06T01:51:33.541Z,84.60
2019-02-06T01:54:03.785Z,82.95
2019-02-06T01:56:42.406Z,82.40
2019-02-06T01:59:12.668Z,82.83
2019-02-06T02:01:42.936Z,86.95
2019-02-06T02:04:13.294Z,84.13
2019-02-06T02:06:43.520Z,82.30
2019-02-06T02:09:19.564Z,82.73
2019-02-06T02:11:49.966Z,79.57
2019-02-06T02:14:20.313Z,83.27
2019-02-06T02:16:51.236Z,80.30
2019-02-06T02:19:21.461Z,78.70
2019-02-06T02:21:51.783Z,72.47
2019-02-06T02:24:22.163Z,72.27
2019-02-06T02:26:52.429Z,71.17
2019-02-06T02:29:23.136Z,60.73
2019-02-06T02:31:53.541Z,57.60
2019-02-06T02:34:23.825Z,65.00
2019-02-06T02:36:54.068Z,54.77
2019-02-06T02:39:24.325Z,55.30
2019-02-06T02:41:54.579Z,56.03
2019-02-06T02:44:24.745Z,58.13
2019-02-06T02:46:57.454Z,55.67
2019-02-06T02:49:27.744Z,54.63
2019-02-06T02:51:58.135Z,58.00
2019-02-06T02:54:28.532Z,54.00
2019-02-06T02:56:59.147Z,56.30
2019-02-06T02:59:29.400Z,51.53
2019-02-06T03:02:10.926Z,47.57
2019-02-06T03:04:45.191Z,46.80
2019-02-06T03:07:15.462Z,44.40
2019-02-06T03:09:45.786Z,43.77
2019-02-06T03:12:16.041Z,41.90
2019-02-06T03:14:46.407Z,41.20
2019-02-06T03:17:16.683Z,37.33
2019-02-06T03:19:47.027Z,37.93
2019-02-06T03:22:17.727Z,33.75
2019-02-06T03:24:47.965Z,33.23
2019-02-06T03:27:18.203Z,35.47
2019-02-06T03:29:48.379Z,33.23
2019-02-06T03:32:18.626Z,31.90
2019-02-06T03:34:48.949Z,29.77
2019-02-06T03:37:19.205Z,28.87
2019-02-06T03:39:49.291Z,26.50
2019-02-06T03:42:22.134Z,29.10
2019-02-06T03:44:52.450Z,27.37
2019-02-06T03:47:22.660Z,27.87
2019-02-06T03:49:53.102Z,26.83
2019-02-06T03:52:23.350Z,25.67
2019-02-06T03:54:53.602Z,26.03
2019-02-06T03:57:23.914Z,26.23
2019-02-06T03:59:54.237Z,24.47
2019-02-06T04:02:24.576Z,29.03
2019-02-06T04:04:55.066Z,26.62
2019-02-06T04:07:25.329Z,23.07
2019-02-06T04:09:55.645Z,23.20
2019-02-06T04:12:25.906Z,22.47
2019-02-06T04:14:56.218Z,25.10
2019-02-06T04:17:26.393Z,25.23
2019-02-06T04:19:56.684Z,26.07
2019-02-06T04:22:26.886Z,26.80
2019-02-06T04:24:57.081Z,24.03
2019-02-06T04:27:27.296Z,23.63
2019-02-06T04:29:57.649Z,25.70
2019-02-06T04:32:28.398Z,24.43
2019-02-06T04:34:58.675Z,23.03
2019-02-06T04:37:28.881Z,24.33
2019-02-06T04:39:59.079Z,22.00
2019-02-06T04:42:29.227Z,24.00
2019-02-06T04:44:59.403Z,24.13
2019-02-06T04:47:30.019Z,23.67
2019-02-06T04:50:00.278Z,23.83
2019-02-06T04:52:30.632Z,24.80
2019-02-06T04:55:00.973Z,24.27
2019-02-06T04:57:31.173Z,24.87
2019-02-06T05:00:01.513Z,22.47
2019-02-06T05:02:31.833Z,25.00
2019-02-06T05:05:02.045Z,25.53
2019-02-06T05:07:32.465Z,22.87
2019-02-06T05:10:02.682Z,24.13
2019-02-06T05:12:32.973Z,26.17
2019-02-06T05:15:03.613Z,23.40
2019-02-06T05:17:33.803Z,26.57
2019-02-06T05:20:07.502Z,22.63
2019-02-06T05:22:37.714Z,24.00
2019-02-06T05:25:08.116Z,26.23
2019-02-06T05:27:38.639Z,24.17
2019-02-06T05:30:09.181Z,24.02
2019-02-06T05:32:42.795Z,22.83
2019-02-06T05:35:11.511Z,26.47
2019-02-06T05:37:41.916Z,22.80
2019-02-06T05:40:14.558Z,24.90
2019-02-06T05:42:46.385Z,25.23
2019-02-06T05:45:17.094Z,25.77
2019-02-06T05:47:47.583Z,21.90
2019-02-06T05:50:21.612Z,24.47
2019-02-06T05:52:52.214Z,22.32
2019-02-06T05:55:23.049Z,23.73
2019-02-06T05:57:53.813Z,21.60
2019-02-06T06:00:38.017Z,21.62
2019-02-06T06:03:08.643Z,22.90
2019-02-06T06:05:41.018Z,22.70
2019-02-06T06:08:11.359Z,23.87
2019-02-06T06:10:42.008Z,20.70
2019-02-06T06:13:12.385Z,27.73
2019-02-06T06:15:53.702Z,23.03
2019-02-06T06:18:24.400Z,23.60
2019-02-06T06:20:55.270Z,23.57
2019-02-06T06:23:26.030Z,23.50
2019-02-06T06:25:56.727Z,22.40
2019-02-06T06:28:29.392Z,23.23
2019-02-06T06:30:59.990Z,24.17
2019-02-06T06:33:36.818Z,24.97
2019-02-06T06:36:07.380Z,22.63
2019-02-06T06:38:38.072Z,22.47
2019-02-06T06:41:08.698Z,23.17
2019-02-06T06:43:39.408Z,26.43
2019-02-06T06:46:10.084Z,22.90
2019-02-06T06:48:40.933Z,23.87
2019-02-06T06:51:11.614Z,22.00
2019-02-06T06:53:42.271Z,23.40
2019-02-06T06:56:12.928Z,24.67
2019-02-06T06:58:43.512Z,24.10
2019-02-06T07:01:17.068Z,23.90
2019-02-06T07:03:47.818Z,23.83
2019-02-06T07:06:18.386Z,24.43
2019-02-06T07:08:49.189Z,21.27
2019-02-06T07:11:19.698Z,21.25
2019-02-06T07:13:53.231Z,24.73
2019-02-06T07:16:25.639Z,24.45
2019-02-06T07:18:55.920Z,21.67
2019-02-06T07:21:26.471Z,23.27
2019-02-06T07:23:58.774Z,22.60
2019-02-06T07:26:56.952Z,23.23
2019-02-06T07:29:27.470Z,22.57
2019-02-06T07:31:57.803Z,21.27
2019-02-06T07:34:28.536Z,24.93
2019-02-06T07:36:58.945Z,22.60
2019-02-06T07:39:29.495Z,22.97
2019-02-06T07:42:00.151Z,24.52
2019-02-06T07:44:30.651Z,23.23
2019-02-06T07:47:01.432Z,22.30
2019-02-06T07:49:33.923Z,24.97
2019-02-06T07:52:04.737Z,22.77
2019-02-06T07:54:35.464Z,24.67
2019-02-06T07:57:05.932Z,21.03
2019-02-06T07:59:36.694Z,23.53
2019-02-06T08:02:07.395Z,24.90
2019-02-06T08:04:38.048Z,21.93
2019-02-06T08:07:10.510Z,24.40
2019-02-06T08:09:41.300Z,22.87
2019-02-06T08:12:13.772Z,21.70
2019-02-06T08:14:44.353Z,21.67
2019-02-06T08:17:15.086Z,21.43
2019-02-06T08:19:45.846Z,21.27
2019-02-06T08:22:17.863Z,23.33
2019-02-06T08:24:51.167Z,24.87
2019-02-06T08:27:21.946Z,23.10
2019-02-06T08:29:52.788Z,24.17
2019-02-06T08:32:23.438Z,25.17
2019-02-06T08:34:54.433Z,22.93
2019-02-06T08:37:26.806Z,22.25
2019-02-06T08:39:57.537Z,25.80
2019-02-06T08:42:30.231Z,23.73
2019-02-06T08:45:01.087Z,24.83
2019-02-06T08:47:33.161Z,24.47
2019-02-06T08:50:03.758Z,28.97
2019-02-06T08:52:34.376Z,26.80
2019-02-06T08:55:06.102Z,29.27
2019-02-06T08:57:36.758Z,27.10
2019-02-06T09:00:09.812Z,27.27
2019-02-06T09:02:40.487Z,26.90
2019-02-06T09:05:11.239Z,27.27
2019-02-06T09:07:44.241Z,28.17
2019-02-06T09:10:18.264Z,28.57
2019-02-06T09:12:49.104Z,34.80
2019-02-06T09:15:20.030Z,28.20
2019-02-06T09:17:50.741Z,29.40
2019-02-06T09:20:24.125Z,30.63
2019-02-06T09:22:55.232Z,34.83
2019-02-06T09:25:25.948Z,29.53
2019-02-06T09:27:58.452Z,31.87
2019-02-06T09:30:31.110Z,29.87
2019-02-06T09:33:01.661Z,33.40
2019-02-06T09:35:31.963Z,29.43
2019-02-06T09:38:02.428Z,31.83
2019-02-06T09:40:33.227Z,29.50
2019-02-06T09:43:03.879Z,30.13
2019-02-06T09:45:39.625Z,31.83
2019-02-06T09:48:11.656Z,34.63
2019-02-06T09:50:43.644Z,29.37
2019-02-06T09:53:15.453Z,30.57
2019-02-06T09:55:45.831Z,33.00
2019-02-06T09:58:16.098Z,32.20
2019-02-06T10:00:46.811Z,32.15
2019-02-06T10:03:17.130Z,32.78
2019-02-06T10:05:47.525Z,32.97
2019-02-06T10:08:17.853Z,33.83
2019-02-06T10:10:48.331Z,35.17
2019-02-06T10:13:18.781Z,32.27
2019-02-06T10:15:51.834Z,32.13
2019-02-06T10:18:22.299Z,31.77
2019-02-06T10:20:53.472Z,31.03
2019-02-06T10:23:29.595Z,29.85
2019-02-06T10:25:59.952Z,28.97
2019-02-06T10:28:31.895Z,30.20
2019-02-06T10:31:05.005Z,26.93
2019-02-06T10:33:38.348Z,29.50
2019-02-06T10:36:08.757Z,25.07
2019-02-06T10:38:41.826Z,23.73
2019-02-06T10:41:12.078Z,25.93
2019-02-06T10:43:42.446Z,29.40
2019-02-06T10:46:18.315Z,25.50
2019-02-06T10:48:48.830Z,27.43
2019-02-06T10:51:19.191Z,27.50
2019-02-06T10:53:49.625Z,26.47
2019-02-06T10:56:22.090Z,26.27
2019-02-06T10:58:55.404Z,26.70
2019-02-06T11:01:30.472Z,26.33
2019-02-06T11:04:01.071Z,27.70
2019-02-06T11:06:31.598Z,29.40
2019-02-06T11:09:01.912Z,28.87
2019-02-06T11:11:36.328Z,29.17
2019-02-06T11:14:09.886Z,31.00
2019-02-06T11:16:40.257Z,31.33
2019-02-06T11:19:10.620Z,30.90
2019-02-06T11:21:42.111Z,30.20
2019-02-06T11:24:12.544Z,33.00
2019-02-06T11:26:42.929Z,31.87
2019-02-06T11:29:15.418Z,32.35
2019-02-06T11:31:45.859Z,34.18
2019-02-06T11:34:16.192Z,33.53
2019-02-06T11:36:47.657Z,33.00
2019-02-06T11:39:23.991Z,31.60
2019-02-06T11:41:54.340Z,35.50
2019-02-06T11:44:24.575Z,35.40
2019-02-06T11:46:54.858Z,32.73
2019-02-06T11:49:30.082Z,37.70
2019-02-06T11:52:00.507Z,33.23
2019-02-06T11:54:30.629Z,35.10
2019-02-06T11:57:04.279Z,36.10
2019-02-06T11:59:34.568Z,37.63
2019-02-06T12:02:04.965Z,36.77
2019-02-06T12:04:35.322Z,34.47
2019-02-06T12:07:06.384Z,33.23
2019-02-06T12:09:38.153Z,34.57
2019-02-06T12:12:08.393Z,37.13
2019-02-06T12:14:38.779Z,36.80
2019-02-06T12:17:09.011Z,33.17
2019-02-06T12:19:39.458Z,36.90
2019-02-06T12:22:09.801Z,36.13
2019-02-06T12:24:40.430Z,32.10
2019-02-06T12:27:10.952Z,35.47
2019-02-06T12:29:42.637Z,37.60
2019-02-06T12:32:12.941Z,36.88
2019-02-06T12:34:43.283Z,28.10
2019-02-06T12:37:13.632Z,36.30
2019-02-06T12:40:58.733Z,30.77
2019-02-06T12:56:44.549Z,27.43
2019-02-06T12:59:14.919Z,21.60
2019-02-06T13:01:45.583Z,25.07
2019-02-06T13:04:15.952Z,24.40
2019-02-06T13:06:46.230Z,23.93
2019-02-06T13:09:21.371Z,23.70
2019-02-06T13:11:54.262Z,22.87
2019-02-06T13:14:25.038Z,19.20
2019-02-06T13:16:58.225Z,22.67
2019-02-06T13:19:46.587Z,23.63
2019-02-06T13:22:55.522Z,22.05
2019-02-06T13:25:28.913Z,24.10
2019-02-06T13:28:01.670Z,21.13
2019-02-06T13:30:41.712Z,20.33
2019-02-06T13:33:11.837Z,21.00
2019-02-06T13:35:45.131Z,23.50
2019-02-06T13:38:26.249Z,23.32
2019-02-06T13:40:56.862Z,21.20
2019-02-06T13:43:28.841Z,19.03
2019-02-06T13:45:59.243Z,18.77
2019-02-06T13:48:33.938Z,21.60
2019-02-06T13:51:15.595Z,21.13
2019-02-06T13:53:36.628Z,21.07
2019-02-06T13:56:09.032Z,21.90
2019-02-06T13:59:12.206Z,23.63
2019-02-06T14:01:44.197Z,22.07
2019-02-06T14:04:14.644Z,23.57
2019-02-06T14:06:44.907Z,22.50
2019-02-06T14:09:22.623Z,23.33
2019-02-06T14:11:49.298Z,22.63
2019-02-06T14:14:21.708Z,21.62
2019-02-06T14:16:54.267Z,23.00
2019-02-06T14:19:24.658Z,24.27
2019-02-06T14:21:55.031Z,22.07
2019-02-06T14:24:50.572Z,21.00
2019-02-06T14:28:04.371Z,20.97
2019-02-06T14:31:29.832Z,22.10
2019-02-06T14:34:39.657Z,20.20
2019-02-06T14:37:52.749Z,19.63
2019-02-06T14:40:51.189Z,18.92
2019-02-06T14:43:42.224Z,18.15
2019-02-06T14:47:22.115Z,17.82
2019-02-06T14:50:49.469Z,18.83
2019-02-06T14:54:04.713Z,17.50
2019-02-06T14:57:25.539Z,20.20
2019-02-06T15:01:00.127Z,18.60
2019-02-06T15:04:49.170Z,18.40
2019-02-06T15:07:54.977Z,20.95
2019-02-06T15:11:20.118Z,19.50
2019-02-06T15:14:26.842Z,20.00
2019-02-06T15:17:37.571Z,18.47
2019-02-06T15:20:27.235Z,19.40
2019-02-06T15:23:58.401Z,18.00
2019-02-06T15:27:13.829Z,20.33
2019-02-06T15:30:26.786Z,19.27
2019-02-06T15:34:10.884Z,18.77
2019-02-06T15:37:15.481Z,21.53
2019-02-06T15:40:43.064Z,21.20
2019-02-06T15:44:03.352Z,19.98
2019-02-06T15:47:17.604Z,22.63
2019-02-06T15:50:44.878Z,21.37
2019-02-06T15:54:01.490Z,19.65
2019-02-06T15:57:36.553Z,22.37
2019-02-06T16:00:56.038Z,24.00
2019-02-06T16:04:56.207Z,26.27
2019-02-06T16:07:55.811Z,24.13
2019-02-06T16:11:42.653Z,26.23
2019-02-06T16:14:43.240Z,28.50
2019-02-06T16:18:01.062Z,28.47
2019-02-06T16:21:25.724Z,27.67
2019-02-06T16:24:27.405Z,28.47
2019-02-06T16:28:13.092Z,29.13
2019-02-06T16:31:13.917Z,31.33
2019-02-06T16:34:44.269Z,31.37
2019-02-06T16:38:01.014Z,31.90
2019-02-06T16:41:36.062Z,37.17
2019-02-06T16:44:43.022Z,35.20
2019-02-06T16:48:00.368Z,33.83
2019-02-06T16:51:13.591Z,35.23
2019-02-06T16:54:39.108Z,39.80
2019-02-06T16:58:04.765Z,39.70
2019-02-06T17:01:20.660Z,39.73
2019-02-06T17:04:46.488Z,39.03
2019-02-06T17:08:05.116Z,43.45
2019-02-06T17:11:49.139Z,43.10
2019-02-06T17:15:26.519Z,41.73
2019-02-06T17:18:42.876Z,40.63
2019-02-06T17:22:11.025Z,48.23
2019-02-06T17:25:46.412Z,47.60
2019-02-06T17:28:39.010Z,44.07
2019-02-06T17:31:58.970Z,45.03
2019-02-06T17:35:05.095Z,47.23
2019-02-06T17:38:44.493Z,53.00
2019-02-06T17:42:18.438Z,48.20
2019-02-06T17:46:04.203Z,43.87
2019-02-06T17:49:37.192Z,52.20
2019-02-06T17:52:48.958Z,50.53
2019-02-06T17:55:26.158Z,50.45
2019-02-06T17:57:59.567Z,50.30
2019-02-06T18:01:07.644Z,45.40
2019-02-06T18:03:55.177Z,56.53
2019-02-06T18:06:25.461Z,53.40
2019-02-06T18:08:57.232Z,57.67
2019-02-06T18:11:27.598Z,55.80
2019-02-06T18:13:57.833Z,54.60
2019-02-06T18:16:28.867Z,51.30
2019-02-06T18:18:59.199Z,64.20
2019-02-06T18:21:29.587Z,60.13
2019-02-06T18:23:59.877Z,59.97
2019-02-06T18:26:30.801Z,57.20
2019-02-06T18:29:01.191Z,61.53
2019-02-06T18:31:31.487Z,58.63
2019-02-06T18:34:02.177Z,50.50
2019-02-06T18:36:32.633Z,51.10
2019-02-06T18:39:04.564Z,53.57
2019-02-06T18:41:35.551Z,46.97
2019-02-06T18:44:07.016Z,49.73
2019-02-06T18:46:37.518Z,44.93
2019-02-06T18:49:09.350Z,46.87
2019-02-06T18:51:39.773Z,49.90
2019-02-06T18:54:10.923Z,50.13
2019-02-06T18:56:41.371Z,50.57
2019-02-06T18:59:11.805Z,50.63
2019-02-06T19:01:42.160Z,47.30
2019-02-06T19:04:19.186Z,48.05
2019-02-06T19:06:49.856Z,55.70
2019-02-06T19:09:20.317Z,55.25
2019-02-06T19:11:50.708Z,57.90
2019-02-06T19:14:21.131Z,62.10
2019-02-06T19:16:51.819Z,53.30
2019-02-06T19:19:25.478Z,52.90
2019-02-06T19:21:54.229Z,50.10
2019-02-06T19:24:24.561Z,55.65
2019-02-06T19:26:54.855Z,53.33
2019-02-06T19:29:25.626Z,51.73
2019-02-06T19:31:55.996Z,55.57
2019-02-06T19:34:26.310Z,52.10
2019-02-06T19:36:56.665Z,55.50
2019-02-06T19:39:27.129Z,61.00
2019-02-06T19:41:58.799Z,55.03
2019-02-06T19:44:31.513Z,67.27
2019-02-06T19:47:01.862Z,64.37
2019-02-06T19:49:32.253Z,64.73
2019-02-06T19:52:02.500Z,70.13
2019-02-06T19:54:32.907Z,65.37
2019-02-06T19:57:03.297Z,67.80
2019-02-06T19:59:33.580Z,59.00
2019-02-06T20:02:03.950Z,69.47
2019-02-06T20:04:34.203Z,60.67
2019-02-06T20:07:04.649Z,56.27
2019-02-06T20:09:35.069Z,64.72
2019-02-06T20:12:05.374Z,70.20
2019-02-06T20:14:35.683Z,59.90
2019-02-06T20:17:07.111Z,65.10
2019-02-06T20:19:37.431Z,73.57
2019-02-06T20:22:07.840Z,58.83
2019-02-06T20:24:37.976Z,73.80
2019-02-06T20:27:08.153Z,73.33
2019-02-06T20:29:38.443Z,61.70
2019-02-06T20:32:09.081Z,71.73
2019-02-06T20:34:39.409Z,73.80
2019-02-06T20:37:09.735Z,65.30
2019-02-06T20:39:40.090Z,77.13
2019-02-06T20:42:10.525Z,68.03
2019-02-06T20:44:40.841Z,77.97
2019-02-06T20:47:11.372Z,78.40
2019-02-06T20:49:41.748Z,69.97
2019-02-06T20:52:12.023Z,86.12
2019-02-06T20:54:42.188Z,89.03
2019-02-06T20:57:15.756Z,89.32
2019-02-06T20:59:46.292Z,82.80
2019-02-06T21:02:16.987Z,80.47
2019-02-06T21:04:47.236Z,85.50
2019-02-06T21:07:20.071Z,92.13
2019-02-06T21:09:50.971Z,93.57
2019-02-06T21:12:21.341Z,78.20
2019-02-06T21:14:51.728Z,85.60
2019-02-06T21:17:22.048Z,78.47
2019-02-06T21:19:52.387Z,80.67
2019-02-06T21:22:22.762Z,88.00
2019-02-06T21:24:53.054Z,90.60
2019-02-06T21:27:23.292Z,94.32
2019-02-06T21:29:53.835Z,79.80
2019-02-06T21:32:24.259Z,87.37
2019-02-06T21:34:54.388Z,93.00
2019-02-06T21:37:27.048Z,87.83
2019-02-06T21:39:56.655Z,80.97
2019-02-06T21:42:26.993Z,68.73
2019-02-06T21:44:59.892Z,81.87
2019-02-06T21:47:31.045Z,82.90
2019-02-06T21:50:05.934Z,99.57
2019-02-06T21:52:38.127Z,90.37
2019-02-06T21:55:10.078Z,78.33
2019-02-06T21:57:40.471Z,73.63
2019-02-06T22:00:21.486Z,96.33
2019-02-06T22:02:55.250Z,103.83
2019-02-06T22:05:25.745Z,96.00
2019-02-06T22:07:56.103Z,93.70
2019-02-06T22:10:26.926Z,104.87
2019-02-06T22:12:57.366Z,92.80
2019-02-06T22:15:29.368Z,97.33
2019-02-06T22:17:59.736Z,97.87
2019-02-06T22:20:30.473Z,101.37
2019-02-06T22:23:00.792Z,101.47
2019-02-06T22:25:32.868Z,110.67
2019-02-06T22:28:03.175Z,113.20
2019-02-06T22:30:33.534Z,99.87
2019-02-06T22:33:05.270Z,99.47
2019-02-06T22:35:35.691Z,100.53
2019-02-06T22:38:08.307Z,106.13
2019-02-06T22:40:38.582Z,114.27
2019-02-06T22:43:08.805Z,96.07
2019-02-06T22:45:39.102Z,92.27
2019-02-06T22:48:09.472Z,99.60
2019-02-06T22:50:39.977Z,108.10
2019-02-06T22:53:10.370Z,94.37
2019-02-06T22:55:40.843Z,98.23
2019-02-06T22:58:11.262Z,110.92
2019-02-06T23:01:15.203Z,89.63
2019-02-06T23:03:48.289Z,115.53
2019-02-06T23:06:18.692Z,99.03
2019-02-06T23:08:49.077Z,104.87
2019-02-06T23:11:19.482Z,88.55
2019-02-06T23:13:49.861Z,107.25
2019-02-06T23:16:20.097Z,115.92
2019-02-06T23:18:52.398Z,90.37
2019-02-06T23:21:22.982Z,94.80
2019-02-06T23:23:53.270Z,93.40
2019-02-06T23:26:23.414Z,111.30
2019-02-06T23:28:53.683Z,92.43
2019-02-06T23:31:23.966Z,97.45
2019-02-06T23:33:54.717Z,106.37
2019-02-06T23:36:25.017Z,97.97
2019-02-06T23:38:55.420Z,95.43
2019-02-06T23:41:25.682Z,89.40
2019-02-06T23:43:55.955Z,110.43
2019-02-06T23:46:26.323Z,105.10
2019-02-06T23:48:56.648Z,81.07
2019-02-06T23:51:26.907Z,91.30
2019-02-06T23:53:57.085Z,88.83
2019-02-06T23:56:27.343Z,92.07
2019-02-06T23:58:58.612Z,103.93
